createdAt,value
2017-07-05T00:00:29.405Z,92.11
2017-07-05T00:01:29.377Z,91.53
2017-07-05T00:02:29.461Z,91.63
2017-07-05T00:03:29.498Z,91.25
2017-07-05T00:04:29.480Z,91.44
2017-07-05T00:05:29.766Z,91.92
2017-07-05T00:06:29.570Z,91.53
2017-07-05T00:07:29.599Z,91.53
2017-07-05T00:08:29.632Z,91.35
2017-07-05T00:09:29.692Z,91.53
2017-07-05T00:10:29.928Z,91.35
2017-07-05T00:11:29.773Z,91.35
2017-07-05T00:12:29.792Z,91.53
2017-07-05T00:13:29.810Z,91.63
2017-07-05T00:14:29.842Z,91.83
2017-07-05T00:15:29.893Z,91.88
2017-07-05T00:16:29.901Z,91.3
2017-07-05T00:17:29.909Z,91.06
2017-07-05T00:18:29.999Z,91.59
2017-07-05T00:19:29.998Z,91.97
2017-07-05T00:20:30.041Z,91.35
2017-07-05T00:21:30.070Z,91.59
2017-07-05T00:22:30.123Z,91.63
2017-07-05T00:23:30.125Z,91.2
2017-07-05T00:24:30.189Z,91.35
2017-07-05T00:25:30.199Z,90.96
2017-07-05T00:26:30.260Z,91.3
2017-07-05T00:27:30.248Z,91.3
2017-07-05T00:28:30.304Z,92.07
2017-07-05T00:29:30.341Z,92.35
2017-07-05T00:30:30.393Z,92.25
2017-07-05T00:31:30.414Z,93.02
2017-07-05T00:32:30.439Z,95.41
2017-07-05T00:33:30.497Z,95.94
2017-07-05T00:34:30.496Z,96.47
2017-07-05T00:35:30.562Z,96.08
2017-07-05T00:36:30.976Z,95.75
2017-07-05T00:37:30.603Z,95.51
2017-07-05T00:38:30.617Z,96.37
2017-07-05T00:39:30.696Z,95.61
2017-07-05T00:40:30.704Z,95.56
2017-07-05T00:41:30.735Z,96.27
2017-07-05T00:42:30.769Z,96.08
2017-07-05T00:43:30.826Z,97.04
2017-07-05T00:44:30.831Z,97.13
2017-07-05T00:45:30.870Z,96.75
2017-07-05T00:46:30.899Z,97.13
2017-07-05T00:47:30.932Z,96.84
2017-07-05T00:48:30.970Z,96.75
2017-07-05T00:49:31.005Z,96.66
2017-07-05T00:50:31.008Z,96.47
2017-07-05T00:51:31.074Z,95.79
2017-07-05T00:52:31.102Z,95.98
2017-07-05T00:53:31.108Z,96.56
2017-07-05T00:54:31.149Z,95.98
2017-07-05T00:55:31.228Z,95.12
2017-07-05T00:56:31.212Z,94.65
2017-07-05T00:57:31.271Z,94.36
2017-07-05T00:58:31.278Z,95.03
2017-07-05T00:59:31.338Z,96.08
2017-07-05T01:00:31.395Z,96.47
2017-07-05T01:01:31.409Z,95.7
2017-07-05T01:02:31.437Z,94.84
2017-07-05T01:03:31.470Z,94.65
2017-07-05T01:04:31.511Z,94.26
2017-07-05T01:05:31.558Z,93.88
2017-07-05T01:06:31.568Z,93.31
2017-07-05T01:07:31.627Z,93.5
2017-07-05T01:08:31.635Z,93.21
2017-07-05T01:09:31.698Z,93.79
2017-07-05T01:10:31.697Z,93.69
2017-07-05T01:11:31.742Z,93.12
2017-07-05T01:12:31.765Z,94.26
2017-07-05T01:13:31.802Z,94.36
2017-07-05T01:14:31.837Z,94.26
2017-07-05T01:15:31.895Z,94.65
2017-07-05T01:16:31.914Z,95.22
2017-07-05T01:17:31.960Z,95.89
2017-07-05T01:18:31.941Z,95.89
2017-07-05T01:19:32.030Z,95.98
2017-07-05T01:20:32.041Z,95.7
2017-07-05T01:21:32.061Z,95.32
2017-07-05T01:22:32.098Z,94.46
2017-07-05T01:23:32.160Z,93.98
2017-07-05T01:24:32.148Z,94.17
2017-07-05T01:25:32.206Z,93.69
2017-07-05T01:26:32.233Z,93.31
2017-07-05T01:27:32.249Z,93.02
2017-07-05T01:28:32.330Z,92.64
2017-07-05T01:29:32.346Z,92.93
2017-07-05T01:30:32.367Z,92.74
2017-07-05T01:31:32.403Z,92.54
2017-07-05T01:32:32.454Z,91.97
2017-07-05T01:33:32.463Z,92.16
2017-07-05T01:34:32.509Z,92.25
2017-07-05T01:35:32.506Z,92.97
2017-07-05T01:36:32.544Z,92.54
2017-07-05T01:37:32.626Z,92.88
2017-07-05T01:38:32.660Z,92.3
2017-07-05T01:39:32.670Z,92.74
2017-07-05T01:40:32.674Z,92.49
2017-07-05T01:41:32.733Z,92.4
2017-07-05T01:42:32.771Z,92.78
2017-07-05T01:43:32.832Z,93.07
2017-07-05T01:44:32.867Z,92.93
2017-07-05T01:45:32.872Z,92.97
2017-07-05T01:46:32.926Z,92.54
2017-07-05T01:47:32.968Z,93.16
2017-07-05T01:48:32.980Z,93.16
2017-07-05T01:49:33.005Z,92.97
2017-07-05T01:50:33.061Z,93.55
2017-07-05T01:51:33.071Z,94.12
2017-07-05T01:52:33.126Z,96.13
2017-07-05T01:53:33.145Z,96.47
2017-07-05T01:54:33.163Z,96.89
2017-07-05T01:55:33.170Z,97.23
2017-07-05T01:56:33.241Z,96.8
2017-07-05T01:57:33.272Z,96.84
2017-07-05T01:58:33.330Z,96.66
2017-07-05T01:59:33.363Z,96.08
2017-07-05T02:00:33.368Z,95.61
2017-07-05T02:01:33.399Z,95.61
2017-07-05T02:02:33.419Z,95.32
2017-07-05T02:03:33.483Z,95.32
2017-07-05T02:04:33.504Z,94.36
2017-07-05T02:05:33.562Z,94.26
2017-07-05T02:06:33.569Z,94.46
2017-07-05T02:07:33.644Z,93.6
2017-07-05T02:08:33.629Z,93.6
2017-07-05T02:09:33.665Z,93.88
2017-07-05T02:10:33.689Z,94.31
2017-07-05T02:11:33.764Z,94.46
2017-07-05T02:12:33.780Z,94.41
2017-07-05T02:13:33.797Z,94.36
2017-07-05T02:14:33.865Z,95.12
2017-07-05T02:15:33.870Z,95.98
2017-07-05T02:16:33.928Z,95.79
2017-07-05T02:17:33.938Z,96.27
2017-07-05T02:18:33.980Z,96.27
2017-07-05T02:19:34.003Z,95.7
2017-07-05T02:20:34.038Z,95.51
2017-07-05T02:21:34.105Z,95.41
2017-07-05T02:22:34.129Z,95.79
2017-07-05T02:23:34.132Z,95.79
2017-07-05T02:24:34.172Z,95.7
2017-07-05T02:25:34.207Z,95.61
2017-07-05T02:26:34.263Z,95.22
2017-07-05T02:27:34.274Z,94.93
2017-07-05T02:28:34.325Z,94.26
2017-07-05T02:29:34.365Z,94.65
2017-07-05T02:30:34.369Z,94.17
2017-07-05T02:31:34.405Z,93.98
2017-07-05T02:32:34.445Z,93.79
2017-07-05T02:33:34.472Z,94.46
2017-07-05T02:34:34.473Z,94.17
2017-07-05T02:35:34.526Z,95.03
2017-07-05T02:36:34.566Z,95.32
2017-07-05T02:37:34.591Z,96.08
2017-07-05T02:38:34.660Z,95.61
2017-07-05T02:39:34.667Z,95.61
2017-07-05T02:40:34.701Z,95.61
2017-07-05T02:41:34.737Z,95.61
2017-07-05T02:42:34.791Z,95.61
2017-07-05T02:43:34.775Z,95.89
2017-07-05T02:44:34.829Z,95.79
2017-07-05T02:45:34.872Z,96.08
2017-07-05T02:46:34.871Z,96.18
2017-07-05T02:47:34.933Z,96.75
2017-07-05T02:48:34.967Z,96.75
2017-07-05T02:49:35.056Z,96.94
2017-07-05T02:50:35.043Z,96.66
2017-07-05T02:51:35.090Z,96.75
2017-07-05T02:52:35.072Z,96.18
2017-07-05T02:53:35.161Z,96.27
2017-07-05T02:54:35.161Z,97.75
2017-07-05T02:55:35.206Z,98.09
2017-07-05T02:56:35.233Z,97.23
2017-07-05T02:57:35.271Z,96.66
2017-07-05T02:58:35.327Z,96.8
2017-07-05T02:59:35.333Z,96.66
2017-07-05T03:00:35.344Z,96.66
2017-07-05T03:01:35.426Z,96.89
2017-07-05T03:02:35.459Z,96.66
2017-07-05T03:03:35.488Z,96.37
2017-07-05T03:04:35.496Z,95.89
2017-07-05T03:05:35.555Z,96.08
2017-07-05T03:06:35.588Z,95.98
2017-07-05T03:07:35.594Z,95.89
2017-07-05T03:08:35.628Z,95.7
2017-07-05T03:09:35.712Z,95.41
2017-07-05T03:10:35.699Z,95.7
2017-07-05T03:11:35.738Z,95.7
2017-07-05T03:12:35.787Z,95.79
2017-07-05T03:13:35.802Z,95.79
2017-07-05T03:14:35.854Z,95.7
2017-07-05T03:15:35.841Z,95.7
2017-07-05T03:16:35.896Z,95.98
2017-07-05T03:17:35.902Z,96.08
2017-07-05T03:18:35.956Z,96.66
2017-07-05T03:19:35.972Z,95.79
2017-07-05T03:20:36.047Z,95.51
2017-07-05T03:21:36.056Z,95.79
2017-07-05T03:22:36.090Z,95.22
2017-07-05T03:23:36.114Z,96.08
2017-07-05T03:24:36.148Z,95.98
2017-07-05T03:25:36.187Z,96.37
2017-07-05T03:26:36.231Z,95.65
2017-07-05T03:27:36.263Z,95.27
2017-07-05T03:28:36.293Z,94.98
2017-07-05T03:29:36.327Z,94.79
2017-07-05T03:30:36.362Z,94.21
2017-07-05T03:31:36.394Z,95.07
2017-07-05T03:32:36.404Z,95.07
2017-07-05T03:33:36.483Z,94.89
2017-07-05T03:34:36.486Z,94.21
2017-07-05T03:35:36.507Z,95.75
2017-07-05T03:36:36.555Z,95.46
2017-07-05T03:37:36.595Z,95.27
2017-07-05T03:38:36.629Z,94.89
2017-07-05T03:39:36.662Z,96.51
2017-07-05T03:40:36.706Z,96.7
2017-07-05T03:41:36.702Z,95.84
2017-07-05T03:42:36.760Z,95.65
2017-07-05T03:43:36.824Z,95.17
2017-07-05T03:44:36.854Z,94.41
2017-07-05T03:45:36.863Z,94.6
2017-07-05T03:46:36.891Z,93.64
2017-07-05T03:47:36.947Z,93.16
2017-07-05T03:48:36.986Z,93.55
2017-07-05T03:49:36.991Z,94.6
2017-07-05T03:50:37.050Z,94.6
2017-07-05T03:51:37.084Z,94.21
2017-07-05T03:52:37.100Z,94.5
2017-07-05T03:53:37.127Z,94.02
2017-07-05T03:54:37.135Z,93.98
2017-07-05T03:55:37.188Z,93.74
2017-07-05T03:56:37.225Z,93.55
2017-07-05T03:57:37.267Z,95.31
2017-07-05T03:58:37.295Z,95.22
2017-07-05T03:59:37.324Z,94.93
2017-07-05T04:00:37.357Z,95.61
2017-07-05T04:01:37.389Z,95.31
2017-07-05T04:02:37.418Z,95.03
2017-07-05T04:03:37.451Z,94.74
2017-07-05T04:04:37.494Z,94.45
2017-07-05T04:05:37.515Z,94.45
2017-07-05T04:06:37.553Z,93.88
2017-07-05T04:07:37.584Z,94.55
2017-07-05T04:08:37.623Z,94.17
2017-07-05T04:09:37.650Z,93.59
2017-07-05T04:10:37.702Z,93.88
2017-07-05T04:11:37.720Z,93.3
2017-07-05T04:12:37.756Z,94.07
2017-07-05T04:13:37.787Z,96.37
2017-07-05T04:14:37.822Z,96.56
2017-07-05T04:15:37.853Z,96.37
2017-07-05T04:16:37.894Z,95.61
2017-07-05T04:17:37.920Z,95.89
2017-07-05T04:18:37.956Z,96.47
2017-07-05T04:19:37.994Z,95.89
2017-07-05T04:20:38.019Z,96.47
2017-07-05T04:21:38.126Z,96.37
2017-07-05T04:22:38.092Z,95.79
2017-07-05T04:23:38.116Z,95.22
2017-07-05T04:24:38.158Z,95.22
2017-07-05T04:25:38.268Z,94.36
2017-07-05T04:26:38.334Z,94.55
2017-07-05T04:27:38.375Z,94.36
2017-07-05T04:28:38.350Z,94.45
2017-07-05T04:29:38.402Z,94.74
2017-07-05T04:30:38.357Z,94.55
2017-07-05T04:31:38.395Z,95.31
2017-07-05T04:32:38.413Z,95.03
2017-07-05T04:33:38.457Z,95.89
2017-07-05T04:34:38.475Z,95.41
2017-07-05T04:35:38.538Z,96.03
2017-07-05T04:36:38.614Z,95.12
2017-07-05T04:37:38.598Z,95.12
2017-07-05T04:38:38.623Z,94.5
2017-07-05T04:39:38.802Z,94.45
2017-07-05T04:40:38.697Z,94.98
2017-07-05T04:41:38.731Z,95.07
2017-07-05T04:42:38.765Z,94.6
2017-07-05T04:43:38.867Z,94.31
2017-07-05T04:44:38.828Z,95.17
2017-07-05T04:45:38.853Z,95.36
2017-07-05T04:46:38.902Z,94.93
2017-07-05T04:47:38.927Z,95.36
2017-07-05T04:48:38.966Z,95.17
2017-07-05T04:49:39.001Z,95.17
2017-07-05T04:50:39.035Z,95.56
2017-07-05T04:51:39.063Z,95.46
2017-07-05T04:52:39.098Z,95.36
2017-07-05T04:53:39.201Z,95.84
2017-07-05T04:54:39.228Z,95.46
2017-07-05T04:55:39.197Z,95.27
2017-07-05T04:56:39.234Z,95.07
2017-07-05T04:57:39.265Z,95.07
2017-07-05T04:58:39.294Z,95.07
2017-07-05T04:59:39.345Z,96.03
2017-07-05T05:00:39.426Z,96.13
2017-07-05T05:01:39.399Z,96.13
2017-07-05T05:02:39.438Z,95.36
2017-07-05T05:03:39.474Z,95.46
2017-07-05T05:04:39.502Z,95.65
2017-07-05T05:05:39.526Z,96.13
2017-07-05T05:06:39.568Z,96.61
2017-07-05T05:07:39.602Z,96.13
2017-07-05T05:08:39.649Z,96.03
2017-07-05T05:09:39.673Z,95.94
2017-07-05T05:10:39.684Z,96.22
2017-07-05T05:11:39.742Z,96.13
2017-07-05T05:12:39.831Z,96.42
2017-07-05T05:13:39.800Z,96.51
2017-07-05T05:14:39.807Z,96.13
2017-07-05T05:15:39.883Z,96.61
2017-07-05T05:16:39.899Z,96.7
2017-07-05T05:17:39.941Z,96.61
2017-07-05T05:18:39.972Z,96.7
2017-07-05T05:19:39.999Z,97.47
2017-07-05T05:20:40.070Z,98.05
2017-07-05T05:21:40.046Z,97.56
2017-07-05T05:22:40.075Z,97.09
2017-07-05T05:23:40.141Z,96.99
2017-07-05T05:24:40.186Z,96.51
2017-07-05T05:25:40.197Z,96.51
2017-07-05T05:26:40.245Z,95.94
2017-07-05T05:27:40.281Z,95.46
2017-07-05T05:28:40.316Z,96.51
2017-07-05T05:29:40.347Z,97.28
2017-07-05T05:30:40.387Z,96.7
2017-07-05T05:31:40.419Z,96.03
2017-07-05T05:32:40.464Z,95.27
2017-07-05T05:33:40.486Z,94.79
2017-07-05T05:34:40.524Z,95.07
2017-07-05T05:35:40.536Z,94.6
2017-07-05T05:36:40.589Z,94.64
2017-07-05T05:37:40.621Z,94.6
2017-07-05T05:38:40.656Z,94.84
2017-07-05T05:39:40.785Z,95.22
2017-07-05T05:40:40.722Z,94.55
2017-07-05T05:41:40.762Z,94.64
2017-07-05T05:42:40.791Z,93.93
2017-07-05T05:43:40.831Z,94.02
2017-07-05T05:44:40.860Z,92.97
2017-07-05T05:45:40.891Z,93.07
2017-07-05T05:46:40.924Z,93.26
2017-07-05T05:47:40.943Z,93.35
2017-07-05T05:48:40.992Z,92.97
2017-07-05T05:49:41.028Z,92.87
2017-07-05T05:50:41.057Z,92.97
2017-07-05T05:51:41.093Z,92.87
2017-07-05T05:52:41.128Z,93.35
2017-07-05T05:53:41.147Z,92.87
2017-07-05T05:54:41.181Z,93.16
2017-07-05T05:55:41.232Z,92.78
2017-07-05T05:56:41.320Z,93.07
2017-07-05T05:57:41.281Z,93.26
2017-07-05T05:58:41.336Z,93.26
2017-07-05T05:59:41.371Z,93.16
2017-07-05T06:00:41.380Z,93.07
2017-07-05T06:01:41.467Z,92.97
2017-07-05T06:02:41.680Z,92.97
2017-07-05T06:03:41.567Z,93.64
2017-07-05T06:04:41.677Z,94.6
2017-07-05T06:05:41.592Z,94.5
2017-07-05T06:06:41.591Z,93.83
2017-07-05T06:07:41.675Z,94.6
2017-07-05T06:08:41.675Z,93.93
2017-07-05T06:09:41.679Z,93.83
2017-07-05T06:10:41.796Z,93.45
2017-07-05T06:11:41.767Z,93.83
2017-07-05T06:12:41.804Z,93.93
2017-07-05T06:13:41.897Z,94.5
2017-07-05T06:14:41.895Z,94.79
2017-07-05T06:15:41.885Z,94.5
2017-07-05T06:16:42.014Z,94.12
2017-07-05T06:17:41.969Z,93.64
2017-07-05T06:18:42.015Z,94.12
2017-07-05T06:19:42.039Z,94.02
2017-07-05T06:20:42.082Z,93.93
2017-07-05T06:21:42.105Z,94.12
2017-07-05T06:22:42.143Z,94.4
2017-07-05T06:23:42.177Z,94.31
2017-07-05T06:24:42.364Z,94.69
2017-07-05T06:25:42.256Z,94.6
2017-07-05T06:26:42.293Z,94.6
2017-07-05T06:27:42.281Z,94.12
2017-07-05T06:28:42.363Z,94.12
2017-07-05T06:29:42.391Z,93.93
2017-07-05T06:30:42.421Z,94.31
2017-07-05T06:31:42.463Z,93.83
2017-07-05T06:32:42.468Z,93.74
2017-07-05T06:33:42.567Z,94.6
2017-07-05T06:34:42.550Z,95.46
2017-07-05T06:35:42.590Z,95.27
2017-07-05T06:36:42.629Z,95.36
2017-07-05T06:37:42.660Z,95.94
2017-07-05T06:38:42.676Z,95.79
2017-07-05T06:39:42.817Z,96.37
2017-07-05T06:40:42.795Z,95.31
2017-07-05T06:41:42.781Z,95.12
2017-07-05T06:42:42.807Z,94.64
2017-07-05T06:43:43.056Z,94.35
2017-07-05T06:44:42.882Z,94.84
2017-07-05T06:45:42.888Z,93.98
2017-07-05T06:46:42.937Z,94.55
2017-07-05T06:47:42.983Z,94.35
2017-07-05T06:48:43.004Z,94.45
2017-07-05T06:49:43.063Z,94.55
2017-07-05T06:50:43.146Z,94.35
2017-07-05T06:51:43.112Z,94.35
2017-07-05T06:52:43.188Z,94.35
2017-07-05T06:53:43.199Z,94.64
2017-07-05T06:54:43.249Z,94.45
2017-07-05T06:55:43.249Z,93.78
2017-07-05T06:56:43.306Z,94.55
2017-07-05T06:57:43.493Z,94.26
2017-07-05T06:58:43.369Z,93.78
2017-07-05T06:59:43.443Z,93.4
2017-07-05T07:00:43.426Z,93.98
2017-07-05T07:01:43.583Z,94.84
2017-07-05T07:02:43.502Z,94.45
2017-07-05T07:03:43.503Z,94.55
2017-07-05T07:04:43.567Z,95.31
2017-07-05T07:05:43.907Z,94.26
2017-07-05T07:06:43.640Z,95.22
2017-07-05T07:07:43.667Z,94.93
2017-07-05T07:08:43.707Z,94.64
2017-07-05T07:09:43.742Z,95.51
2017-07-05T07:10:43.917Z,95.12
2017-07-05T07:11:43.812Z,95.12
2017-07-05T07:12:43.830Z,94.35
2017-07-05T07:13:43.895Z,94.55
2017-07-05T07:14:43.915Z,94.45
2017-07-05T07:15:43.953Z,94.93
2017-07-05T07:16:43.959Z,95.22
2017-07-05T07:17:44.013Z,94.35
2017-07-05T07:18:44.017Z,94.17
2017-07-05T07:19:44.076Z,93.49
2017-07-05T07:20:44.204Z,94.35
2017-07-05T07:21:44.195Z,94.26
2017-07-05T07:22:44.168Z,93.98
2017-07-05T07:23:44.195Z,93.3
2017-07-05T07:24:44.243Z,94.17
2017-07-05T07:25:44.278Z,93.88
2017-07-05T07:26:44.303Z,93.44
2017-07-05T07:27:44.410Z,93.21
2017-07-05T07:28:44.351Z,93.26
2017-07-05T07:29:44.415Z,93.44
2017-07-05T07:30:44.575Z,93.02
2017-07-05T07:31:44.485Z,93.3
2017-07-05T07:32:44.535Z,93.16
2017-07-05T07:33:44.551Z,93.06
2017-07-05T07:34:44.584Z,92.82
2017-07-05T07:35:44.619Z,93.35
2017-07-05T07:36:44.667Z,93.73
2017-07-05T07:37:44.670Z,94.74
2017-07-05T07:38:44.716Z,94.35
2017-07-05T07:39:44.780Z,94.64
2017-07-05T07:40:44.819Z,96.56
2017-07-05T07:41:44.873Z,96.66
2017-07-05T07:42:44.849Z,97.04
2017-07-05T07:43:44.918Z,97.42
2017-07-05T07:44:44.939Z,97.42
2017-07-05T07:45:45.000Z,98.19
2017-07-05T07:46:45.002Z,97.8
2017-07-05T07:47:45.004Z,97.38
2017-07-05T07:48:45.079Z,97.38
2017-07-05T07:49:45.121Z,96.89
2017-07-05T07:50:45.167Z,97.33
2017-07-05T07:51:45.239Z,96.56
2017-07-05T07:52:45.226Z,96.66
2017-07-05T07:53:45.217Z,96.27
2017-07-05T07:54:45.271Z,96.18
2017-07-05T07:55:45.320Z,95.98
2017-07-05T07:56:45.326Z,96.47
2017-07-05T07:57:45.369Z,96.47
2017-07-05T07:58:45.415Z,96.37
2017-07-05T07:59:45.471Z,96.8
2017-07-05T08:00:45.503Z,95.84
2017-07-05T08:01:45.656Z,95.98
2017-07-05T08:02:45.533Z,95.98
2017-07-05T08:03:45.571Z,95.26
2017-07-05T08:04:45.619Z,95.7
2017-07-05T08:05:45.704Z,95.31
2017-07-05T08:06:45.777Z,95.22
2017-07-05T08:07:45.718Z,94.84
2017-07-05T08:08:45.749Z,94.4
2017-07-05T08:09:45.768Z,94.59
2017-07-05T08:10:46.196Z,94.4
2017-07-05T08:11:45.891Z,94.69
2017-07-05T08:12:45.882Z,94.26
2017-07-05T08:13:45.984Z,94.02
2017-07-05T08:14:45.953Z,93.97
2017-07-05T08:15:45.978Z,93.97
2017-07-05T08:16:46.024Z,93.78
2017-07-05T08:17:46.067Z,94.35
2017-07-05T08:18:46.091Z,93.78
2017-07-05T08:19:46.125Z,93.3
2017-07-05T08:20:46.214Z,93.01
2017-07-05T08:21:46.183Z,93.11
2017-07-05T08:22:46.220Z,92.72
2017-07-05T08:23:46.458Z,92.54
2017-07-05T08:24:46.278Z,92.15
2017-07-05T08:25:46.459Z,91.67
2017-07-05T08:26:46.347Z,91.62
2017-07-05T08:27:46.412Z,91.33
2017-07-05T08:28:46.470Z,90.56
2017-07-05T08:29:46.473Z,90.08
2017-07-05T08:30:46.484Z,90.47
2017-07-05T08:31:46.714Z,90.08
2017-07-05T08:32:46.552Z,89.22
2017-07-05T08:33:46.611Z,89.32
2017-07-05T08:34:46.614Z,89.03
2017-07-05T08:35:46.711Z,89.41
2017-07-05T08:36:46.708Z,89.32
2017-07-05T08:37:46.731Z,89.41
2017-07-05T08:38:46.772Z,89.12
2017-07-05T08:39:46.817Z,89.32
2017-07-05T08:40:46.823Z,88.84
2017-07-05T08:41:46.878Z,88.65
2017-07-05T08:42:47.124Z,88.84
2017-07-05T08:43:46.932Z,89.12
2017-07-05T08:44:46.982Z,88.84
2017-07-05T08:45:47.025Z,89.32
2017-07-05T08:46:47.085Z,90.08
2017-07-05T08:47:47.097Z,89.79
2017-07-05T08:48:47.104Z,89.51
2017-07-05T08:49:47.133Z,88.74
2017-07-05T08:50:47.176Z,88.69
2017-07-05T08:51:47.209Z,88.11
2017-07-05T08:52:47.419Z,87.82
2017-07-05T08:53:47.279Z,87.05
2017-07-05T08:54:47.380Z,86.43
2017-07-05T08:55:47.393Z,84.94
2017-07-05T08:56:47.375Z,83.19
2017-07-05T08:57:47.533Z,80.58
2017-07-05T08:58:47.472Z,76.75
2017-07-05T08:59:47.510Z,72.26
2017-07-05T09:00:47.521Z,68.05
2017-07-05T09:01:47.808Z,63.62
2017-07-05T09:02:47.667Z,62.68
2017-07-05T09:03:47.639Z,62.23
2017-07-05T09:04:47.724Z,60.94
2017-07-05T09:05:48.050Z,62.16
2017-07-05T09:06:47.928Z,62.26
2017-07-05T09:07:47.800Z,62.16
2017-07-05T09:08:47.831Z,61.75
2017-07-05T09:09:47.847Z,62.62
2017-07-05T09:10:47.902Z,63.56
2017-07-05T09:11:47.959Z,64.11
2017-07-05T09:12:47.992Z,63.82
2017-07-05T09:13:48.010Z,64.95
2017-07-05T09:14:48.104Z,65.53
2017-07-05T09:15:48.109Z,65.69
2017-07-05T09:16:48.392Z,66.08
2017-07-05T09:17:48.196Z,66.66
2017-07-05T09:18:48.232Z,66.75
2017-07-05T09:19:48.466Z,66.66
2017-07-05T09:20:48.295Z,66.78
2017-07-05T09:21:48.406Z,66.02
2017-07-05T09:22:48.385Z,65.95
2017-07-05T09:23:48.390Z,65.95
2017-07-05T09:24:48.692Z,66.05
2017-07-05T09:25:48.738Z,64.85
2017-07-05T09:26:48.743Z,65.63
2017-07-05T09:27:48.597Z,65.69
2017-07-05T09:28:48.632Z,65.79
2017-07-05T09:29:48.924Z,65.92
2017-07-05T09:30:48.876Z,64.3
2017-07-05T09:31:48.733Z,63.17
2017-07-05T09:32:48.968Z,62.59
2017-07-05T09:33:49.006Z,62.13
2017-07-05T09:34:48.814Z,61.78
2017-07-05T09:35:48.866Z,60.91
2017-07-05T09:36:48.910Z,60.45
2017-07-05T09:37:48.957Z,57.76
2017-07-05T09:38:48.997Z,57.6
2017-07-05T09:39:49.047Z,57.04
2017-07-05T09:40:49.524Z,57.04
2017-07-05T09:41:49.572Z,56.49
2017-07-05T09:42:49.140Z,56
2017-07-05T09:43:49.489Z,56.12
2017-07-05T09:44:49.244Z,55.83
2017-07-05T09:45:49.353Z,55.27
2017-07-05T09:46:49.532Z,53.23
2017-07-05T09:47:49.434Z,53.99
2017-07-05T09:48:49.406Z,54.15
2017-07-05T09:49:49.774Z,55.13
2017-07-05T09:50:49.511Z,55.58
2017-07-05T09:51:49.512Z,56.07
2017-07-05T09:52:49.615Z,55.98
2017-07-05T09:53:49.712Z,55.98
2017-07-05T09:54:49.641Z,56.46
2017-07-05T09:55:50.387Z,56.26
2017-07-05T09:56:49.778Z,56.65
2017-07-05T09:57:49.748Z,57.33
2017-07-05T09:58:49.836Z,57.43
2017-07-05T09:59:50.040Z,57.79
2017-07-05T10:00:49.926Z,58.54
2017-07-05T10:01:49.929Z,58.25
2017-07-05T10:02:50.029Z,58.64
2017-07-05T10:03:50.192Z,57.6
2017-07-05T10:04:50.048Z,55.41
2017-07-05T10:05:50.074Z,52.34
2017-07-05T10:06:50.101Z,50.88
2017-07-05T10:07:50.223Z,49.43
2017-07-05T10:08:50.381Z,48.36
2017-07-05T10:09:50.246Z,47.91
2017-07-05T10:10:50.681Z,47.89
2017-07-05T10:11:50.377Z,49.02
2017-07-05T10:12:50.605Z,49.16
2017-07-05T10:13:50.355Z,48.33
2017-07-05T10:14:50.450Z,46.27
2017-07-05T10:15:50.537Z,45.34
2017-07-05T10:16:50.621Z,45.26
2017-07-05T10:17:50.867Z,45.9
2017-07-05T10:18:50.875Z,46.13
2017-07-05T10:19:50.715Z,46.08
2017-07-05T10:20:50.672Z,45.81
2017-07-05T10:21:50.756Z,43.29
2017-07-05T10:22:51.046Z,43.77
2017-07-05T10:23:50.946Z,43.35
2017-07-05T10:24:51.036Z,42.43
2017-07-05T10:25:50.987Z,41.98
2017-07-05T10:26:51.068Z,42.25
2017-07-05T10:27:51.096Z,43.37
2017-07-05T10:28:51.028Z,43.88
2017-07-05T10:29:51.068Z,44.34
2017-07-05T10:30:51.762Z,43.23
2017-07-05T10:31:51.158Z,41.63
2017-07-05T10:32:51.763Z,40.33
2017-07-05T10:33:51.468Z,39.31
2017-07-05T10:34:51.282Z,38.93
2017-07-05T10:35:51.550Z,38.91
2017-07-05T10:36:51.451Z,39.95
2017-07-05T10:37:51.476Z,40.55
2017-07-05T10:38:51.637Z,40.8
2017-07-05T10:39:51.497Z,41.74
2017-07-05T10:40:52.687Z,41.92
2017-07-05T10:41:51.822Z,42.02
2017-07-05T10:42:52.250Z,42.21
2017-07-05T10:43:51.754Z,43.27
2017-07-05T10:44:52.136Z,44.58
2017-07-05T10:45:51.762Z,45.13
2017-07-05T10:46:51.776Z,45.37
2017-07-05T10:47:51.822Z,45.75
2017-07-05T10:48:51.910Z,46.43
2017-07-05T10:49:52.066Z,46.99
2017-07-05T10:50:52.606Z,47.38
2017-07-05T10:51:51.996Z,46.8
2017-07-05T10:52:52.464Z,46.8
2017-07-05T10:53:52.367Z,46.56
2017-07-05T10:54:52.310Z,46.63
2017-07-05T10:55:52.152Z,47.24
2017-07-05T10:56:52.391Z,46.97
2017-07-05T10:57:52.811Z,47.17
2017-07-05T10:58:52.583Z,47.17
2017-07-05T10:59:52.320Z,46.58
2017-07-05T11:00:52.661Z,45.36
2017-07-05T11:01:52.422Z,43.88
2017-07-05T11:02:52.606Z,42.08
2017-07-05T11:03:52.522Z,41.72
2017-07-05T11:04:52.641Z,41.45
2017-07-05T11:05:52.727Z,41.63
2017-07-05T11:06:52.731Z,42.47
2017-07-05T11:07:52.671Z,43.88
2017-07-05T11:08:52.746Z,45.3
2017-07-05T11:09:52.757Z,46.04
2017-07-05T11:10:52.935Z,46.78
2017-07-05T11:11:53.134Z,47.36
2017-07-05T11:12:52.940Z,47.66
2017-07-05T11:13:52.939Z,47.56
2017-07-05T11:14:53.214Z,48.41
2017-07-05T11:15:52.984Z,48.88
2017-07-05T11:16:52.977Z,48.97
2017-07-05T11:17:53.115Z,49.07
2017-07-05T11:18:53.341Z,49.46
2017-07-05T11:19:54.227Z,48.68
2017-07-05T11:20:53.193Z,48.85
2017-07-05T11:21:53.457Z,49.24
2017-07-05T11:22:53.257Z,49.73
2017-07-05T11:23:53.313Z,50.29
2017-07-05T11:24:53.550Z,50.78
2017-07-05T11:25:53.657Z,51.34
2017-07-05T11:26:53.650Z,51.21
2017-07-05T11:27:53.496Z,52.04
2017-07-05T11:28:53.626Z,52.4
2017-07-05T11:29:53.530Z,53.45
2017-07-05T11:30:53.845Z,54.56
2017-07-05T11:31:53.899Z,55.63
2017-07-05T11:32:53.912Z,56.28
2017-07-05T11:33:53.913Z,57.12
2017-07-05T11:34:53.834Z,57.51
2017-07-05T11:35:54.335Z,57.58
2017-07-05T11:36:53.848Z,58.26
2017-07-05T11:37:54.119Z,59.2
2017-07-05T11:38:53.934Z,59.1
2017-07-05T11:39:53.985Z,58.11
2017-07-05T11:40:54.567Z,58.88
2017-07-05T11:41:54.125Z,59.07
2017-07-05T11:42:54.097Z,59.17
2017-07-05T11:43:54.132Z,58.49
2017-07-05T11:44:54.650Z,57.45
2017-07-05T11:45:54.411Z,57.39
2017-07-05T11:46:54.233Z,57.29
2017-07-05T11:47:54.305Z,57.22
2017-07-05T11:48:54.521Z,57.32
2017-07-05T11:49:54.611Z,57.61
2017-07-05T11:50:54.366Z,57.7
2017-07-05T11:51:54.413Z,58.16
2017-07-05T11:52:54.695Z,58.36
2017-07-05T11:53:54.731Z,57.19
2017-07-05T11:54:54.741Z,57.94
2017-07-05T11:55:54.568Z,59.36
2017-07-05T11:56:54.704Z,59.46
2017-07-05T11:57:54.727Z,59.07
2017-07-05T11:58:54.894Z,59.36
2017-07-05T11:59:54.772Z,59.07
2017-07-05T12:00:54.745Z,58.91
2017-07-05T12:01:54.952Z,59.2
2017-07-05T12:02:55.011Z,59.42
2017-07-05T12:03:55.298Z,58.55
2017-07-05T12:04:54.935Z,58.55
2017-07-05T12:05:54.984Z,58.45
2017-07-05T12:06:55.199Z,58.58
2017-07-05T12:07:55.283Z,58.58
2017-07-05T12:08:55.290Z,58.31
2017-07-05T12:09:55.162Z,58.03
2017-07-05T12:10:56.211Z,57.64
2017-07-05T12:11:55.364Z,57.47
2017-07-05T12:12:55.223Z,57.28
2017-07-05T12:13:55.242Z,57.44
2017-07-05T12:14:55.377Z,57.15
2017-07-05T12:15:55.632Z,57.34
2017-07-05T12:16:55.476Z,57.44
2017-07-05T12:17:55.633Z,57.54
2017-07-05T12:18:55.982Z,57.7
2017-07-05T12:19:55.623Z,58.09
2017-07-05T12:20:55.960Z,58.39
2017-07-05T12:21:55.593Z,58.26
2017-07-05T12:22:55.881Z,58.55
2017-07-05T12:23:55.833Z,58.94
2017-07-05T12:24:55.795Z,58.94
2017-07-05T12:25:56.149Z,59.61
2017-07-05T12:26:55.909Z,59.59
2017-07-05T12:27:56.448Z,59.88
2017-07-05T12:28:56.139Z,60.36
2017-07-05T12:29:55.997Z,60.62
2017-07-05T12:30:56.012Z,60.82
2017-07-05T12:31:56.231Z,60.82
2017-07-05T12:32:56.535Z,60.82
2017-07-05T12:33:56.522Z,60.85
2017-07-05T12:34:56.381Z,60.85
2017-07-05T12:35:56.139Z,60.52
2017-07-05T12:36:56.705Z,60.82
2017-07-05T12:37:56.270Z,61.79
2017-07-05T12:38:56.273Z,61.69
2017-07-05T12:39:56.274Z,61.3
2017-07-05T12:40:56.335Z,61.3
2017-07-05T12:41:56.902Z,61.49
2017-07-05T12:42:56.585Z,61.11
2017-07-05T12:43:56.516Z,61.11
2017-07-05T12:44:56.873Z,61.11
2017-07-05T12:45:56.856Z,60.91
2017-07-05T12:46:56.941Z,60.82
2017-07-05T12:47:56.688Z,60.62
2017-07-05T12:48:56.642Z,60.62
2017-07-05T12:49:56.654Z,60.52
2017-07-05T12:50:56.915Z,60.65
2017-07-05T12:51:56.795Z,60.27
2017-07-05T12:52:56.878Z,60.65
2017-07-05T12:53:56.871Z,60.75
2017-07-05T12:54:56.913Z,60.65